createdAt,value
2019-04-14T00:03:34.663Z,287.57
2019-04-14T00:13:41.703Z,274.00
2019-04-14T00:23:47.834Z,243.50
2019-04-14T00:33:56.290Z,277.83
2019-04-14T00:44:21.146Z,281.63
2019-04-14T00:54:26.839Z,282.80
2019-04-14T01:04:33.763Z,276.70
2019-04-14T01:14:40.891Z,280.23
2019-04-14T01:24:46.850Z,245.00
2019-04-14T01:34:53.990Z,251.10
2019-04-14T01:45:01.167Z,259.77
2019-04-14T01:55:24.605Z,252.17
2019-04-14T02:05:30.178Z,222.10
2019-04-14T02:15:35.813Z,223.17
2019-04-14T02:25:42.787Z,214.50
2019-04-14T02:36:27.017Z,222.23
2019-04-14T02:46:25.962Z,201.47
2019-04-14T02:56:27.920Z,197.83
2019-04-14T03:06:33.835Z,203.37
2019-04-14T03:17:05.784Z,200.17
2019-04-14T03:27:05.015Z,220.87
2019-04-14T03:47:19.776Z,197.73
2019-04-14T03:57:01.897Z,224.27
2019-04-14T04:07:08.134Z,212.83
2019-04-14T04:17:31.910Z,209.57
2019-04-14T04:27:48.366Z,194.00
2019-04-14T04:37:56.341Z,179.53
2019-04-14T04:48:02.446Z,140.83
2019-04-14T04:58:08.157Z,135.80
2019-04-14T05:08:19.572Z,120.97
2019-04-14T05:18:25.234Z,118.53
2019-04-14T05:28:31.007Z,110.07
2019-04-14T05:38:36.992Z,93.00
2019-04-14T05:48:42.755Z,96.90
2019-04-14T05:58:49.240Z,83.70
2019-04-14T06:08:55.054Z,66.00
2019-04-14T06:19:08.174Z,52.40
2019-04-14T06:29:13.679Z,51.13
2019-04-14T06:39:32.161Z,48.93
2019-04-14T06:49:48.370Z,55.67
2019-04-14T06:59:44.343Z,61.60
2019-04-14T07:09:49.932Z,49.53
2019-04-14T07:20:01.851Z,45.80
2019-04-14T07:30:04.253Z,45.73
2019-04-14T07:40:27.937Z,46.53
2019-04-14T07:50:40.981Z,43.83
2019-04-14T08:00:47.677Z,49.03
2019-04-14T08:10:53.013Z,42.53
2019-04-14T08:20:58.640Z,50.50
2019-04-14T08:31:04.200Z,81.83
2019-04-14T08:41:09.727Z,50.90
2019-04-14T08:51:19.879Z,56.60
2019-04-14T09:01:43.534Z,56.43
2019-04-14T09:11:50.746Z,51.43
2019-04-14T09:21:56.386Z,49.23
2019-04-14T09:32:03.080Z,47.80
2019-04-14T09:42:08.719Z,48.47
2019-04-14T09:52:14.239Z,43.57
2019-04-14T10:02:19.847Z,51.43
2019-04-14T10:12:24.945Z,41.57
2019-04-14T10:22:34.096Z,51.37
2019-04-14T10:32:37.413Z,35.80
2019-04-14T10:42:43.006Z,32.50
2019-04-14T10:52:48.525Z,29.03
2019-04-14T11:02:54.014Z,24.77
2019-04-14T11:12:59.532Z,27.20
2019-04-14T11:23:05.035Z,46.13
2019-04-14T11:33:14.334Z,41.50
2019-04-14T11:43:19.741Z,30.03
2019-04-14T11:53:25.330Z,29.40
2019-04-14T12:03:50.625Z,23.13
2019-04-14T12:13:56.539Z,22.90
2019-04-14T12:24:17.442Z,25.87
2019-04-14T12:34:23.020Z,24.20
2019-04-14T12:44:43.462Z,25.33
2019-04-14T12:54:49.061Z,22.53
2019-04-14T13:04:55.491Z,21.10
2019-04-14T13:15:02.867Z,20.13
2019-04-14T13:25:08.727Z,19.37
2019-04-14T13:35:14.373Z,23.20
2019-04-14T13:45:25.421Z,19.30
2019-04-14T13:55:31.098Z,20.27
2019-04-14T14:05:39.593Z,20.50
2019-04-14T14:15:54.361Z,21.60
2019-04-14T14:26:22.952Z,24.40
2019-04-14T14:36:28.693Z,29.13
2019-04-14T14:46:38.505Z,34.77
2019-04-14T14:56:44.213Z,29.87
2019-04-14T15:06:49.994Z,17.20
2019-04-14T15:16:55.899Z,22.70
2019-04-14T15:27:01.530Z,29.40
2019-04-14T15:37:07.476Z,29.23
2019-04-14T15:47:17.658Z,35.83
2019-04-14T15:57:31.259Z,33.77
2019-04-14T16:07:44.816Z,31.53
2019-04-14T16:17:55.020Z,20.83
2019-04-14T16:28:02.920Z,31.57
2019-04-14T16:38:09.226Z,21.77
2019-04-14T16:48:15.222Z,20.73
2019-04-14T16:58:28.728Z,25.03
2019-04-14T17:08:34.620Z,25.90
2019-04-14T17:18:51.176Z,35.47
2019-04-14T17:29:01.699Z,33.77
2019-04-14T17:39:26.071Z,56.60
2019-04-14T17:49:34.280Z,35.27
2019-04-14T17:59:58.440Z,31.90
2019-04-14T18:10:14.306Z,83.50
2019-04-14T18:20:24.326Z,72.20
2019-04-14T18:30:31.983Z,55.70
2019-04-14T18:40:42.297Z,58.37
2019-04-14T18:51:06.054Z,38.67
2019-04-14T19:01:23.499Z,44.05
2019-04-14T19:11:30.861Z,49.00
2019-04-14T19:21:36.541Z,57.93
2019-04-14T19:31:42.580Z,68.13
2019-04-14T19:41:48.227Z,55.97
2019-04-14T19:51:53.810Z,48.83
2019-04-14T20:01:59.334Z,47.07
2019-04-14T20:12:05.136Z,49.07
2019-04-14T20:22:11.811Z,48.57
2019-04-14T20:32:22.959Z,45.97
2019-04-14T20:42:28.716Z,44.80
2019-04-14T20:52:34.299Z,42.00
2019-04-14T21:02:57.680Z,44.03
2019-04-14T21:13:07.665Z,52.27
2019-04-14T21:23:31.337Z,54.33
2019-04-14T21:33:38.093Z,65.67
2019-04-14T21:43:43.501Z,63.37
2019-04-14T21:53:49.652Z,62.37
2019-04-14T22:03:59.519Z,75.77
2019-04-14T22:14:06.733Z,71.50
2019-04-14T22:24:12.368Z,80.13
2019-04-14T22:34:17.936Z,68.50
2019-04-14T22:44:23.480Z,65.17
2019-04-14T22:54:43.680Z,77.40
2019-04-14T23:04:50.796Z,83.10
2019-04-14T23:14:58.006Z,97.37
2019-04-14T23:25:03.633Z,72.43
2019-04-14T23:35:09.176Z,80.53
2019-04-14T23:45:14.945Z,77.60
2019-04-14T23:55:20.487Z,64.83
